Etusivu
METAR-TAF:

METAR-TAF

Lentoasemat :

Koror, Babelthuap Island, Palau

Leveyspiiri: 07-22N, Pituuspiiri: 134-32E, korkeus merenpinnasta: 54 m

Tämänhetkinen sää

Tämä raportti tehtiin 30 minuuttia sitten, kello 20.50 UTC
Tuuli 4 kn etelästä/lounaasta
Lämpötila 27°C
Kosteus 89%
Ilmanpaine 1008 hPa
Näkyvyys: 22.5 km
Hajonneita pilviä 1600 ft:n korkeudessa, Cumulonimbus.
Hajonneita pilviä 30000 ft:n korkeudessa

METAR: PTRO 172050Z 21004KT 14SM BKN016CB BKN300 27/25 A2976 RMK CB ALQDS

Aika: 06:20 (21:20 UTC)

Sääennuste

Tämä raportti tehtiin 3 tuntia ja 51 minuuttia sitten, kello 17.29 UTC
Ennuste voimassa 17. päivästä klo 18 UTC - 18. päivään klo 18 UTC
Tuuli 11 kn lännestä/lounaasta
Näkyvyys: 10 km
Hajanaisia pilviä 1600 ft:n korkeudessa
Hajanaisia pilviä 12000 ft:n korkeudessa
sadekuuroja näköpiirissä

TAF: PTRO 171729Z 1718/1818 24011KT P6SM VCSH SCT016 SCT120

Säähavainnot ja -ennusteet yli 4000 lentoasemalta (METAR- ja TAF-raportit).

Käytössä olevat sääasemat on merkitty karttaan keltaisilla ja punaisilla pisteillä.

Aseta hiiri pisteen päälle nähdäksesi sääaseman nimen.

Klikkaa sitten nähdäksesi säähavainnot ja -ennusteet.

Kartan vaihtaminen: klikkaa mustalla rastilla varustettuja vihreitä pisteitä, niin voit zoomata sisään; viivalla varustettua vihreää pistettä, niin voit zoomata ulos tai vihreitä nuolia, niin pääset viereisille kartoille.


METAR-TAF: